createdAt,value
2023-05-16T00:00:26.901Z,83.24
2023-05-16T00:03:04.208Z,82.96
2023-05-16T00:05:33.922Z,82.21
2023-05-16T00:08:03.674Z,82.25
2023-05-16T00:10:33.268Z,82.02
2023-05-16T00:13:03.205Z,81.99
2023-05-16T00:15:52.564Z,81.80
2023-05-16T00:18:24.049Z,82.39
2023-05-16T00:20:56.767Z,81.97
2023-05-16T00:23:29.701Z,81.40
2023-05-16T00:25:59.728Z,81.62
2023-05-16T00:28:29.780Z,81.09
2023-05-16T00:31:03.109Z,81.20
2023-05-16T00:33:35.834Z,80.40
2023-05-16T00:36:06.176Z,81.20
2023-05-16T00:38:36.739Z,80.47
2023-05-16T00:41:06.976Z,80.40
2023-05-16T00:43:40.189Z,81.00
2023-05-16T00:46:12.460Z,80.37
2023-05-16T00:48:41.916Z,80.66
2023-05-16T00:51:11.710Z,80.59
2023-05-16T00:53:41.093Z,81.19
2023-05-16T00:56:10.514Z,80.49
2023-05-16T00:58:41.082Z,80.70
2023-05-16T01:01:12.735Z,80.61
2023-05-16T01:03:42.821Z,80.28
2023-05-16T01:06:12.485Z,80.39
2023-05-16T01:08:41.907Z,79.80
2023-05-16T01:11:22.692Z,80.48
2023-05-16T01:14:03.951Z,80.42
2023-05-16T01:16:49.120Z,80.28
2023-05-16T01:19:42.440Z,79.86
2023-05-16T01:22:20.962Z,80.73
2023-05-16T01:25:08.396Z,79.84
2023-05-16T01:27:41.394Z,80.27
2023-05-16T01:30:18.309Z,79.88
2023-05-16T01:32:49.859Z,80.07
2023-05-16T01:35:25.491Z,80.14
2023-05-16T01:38:06.495Z,79.56
2023-05-16T01:40:44.425Z,80.56
2023-05-16T01:43:20.087Z,79.48
2023-05-16T01:46:05.395Z,80.19
2023-05-16T01:48:42.708Z,79.30
2023-05-16T01:51:13.341Z,80.01
2023-05-16T01:53:45.573Z,79.24
2023-05-16T01:56:18.567Z,80.35
2023-05-16T01:58:52.447Z,79.91
2023-05-16T02:01:23.641Z,80.29
2023-05-16T02:03:54.065Z,80.00
2023-05-16T02:06:26.442Z,79.97
2023-05-16T02:08:56.667Z,79.74
2023-05-16T02:11:34.901Z,79.65
2023-05-16T02:14:08.360Z,79.69
2023-05-16T02:16:39.651Z,79.74
2023-05-16T02:19:22.607Z,80.71
2023-05-16T02:21:53.917Z,79.65
2023-05-16T02:24:26.091Z,79.65
2023-05-16T02:26:56.612Z,80.14
2023-05-16T02:29:28.252Z,79.91
2023-05-16T02:31:58.489Z,79.55
2023-05-16T02:34:29.524Z,80.92
2023-05-16T02:36:59.170Z,80.22
2023-05-16T02:39:30.467Z,80.14
2023-05-16T02:41:59.725Z,80.38
2023-05-16T02:44:33.650Z,80.11
2023-05-16T02:47:06.212Z,80.57
2023-05-16T02:49:38.806Z,81.19
2023-05-16T02:52:09.533Z,80.83
2023-05-16T02:54:40.048Z,81.17
2023-05-16T02:57:09.512Z,80.53
2023-05-16T02:59:41.606Z,79.64
2023-05-16T03:02:11.418Z,80.01
2023-05-16T03:04:43.592Z,78.92
2023-05-16T03:07:12.753Z,79.33
2023-05-16T03:09:42.655Z,79.77
2023-05-16T03:12:11.621Z,79.47
2023-05-16T03:14:41.688Z,79.97
2023-05-16T03:17:10.931Z,80.02
2023-05-16T03:19:41.845Z,79.64
2023-05-16T03:22:11.635Z,80.09
2023-05-16T03:24:41.575Z,79.97
2023-05-16T03:27:11.195Z,79.70
2023-05-16T03:29:45.022Z,80.23
2023-05-16T03:32:14.452Z,79.64
2023-05-16T03:34:43.592Z,80.13
2023-05-16T03:37:15.109Z,80.14
2023-05-16T03:39:44.550Z,80.51
2023-05-16T03:42:13.424Z,79.75
2023-05-16T03:44:44.550Z,80.48
2023-05-16T03:47:14.294Z,79.85
2023-05-16T03:49:47.410Z,80.45
2023-05-16T03:52:16.253Z,80.15
2023-05-16T03:54:46.159Z,79.88
2023-05-16T03:57:15.386Z,80.94
2023-05-16T03:59:46.867Z,80.95
2023-05-16T04:02:18.769Z,80.01
2023-05-16T04:04:48.963Z,79.95
2023-05-16T04:07:20.337Z,80.50
2023-05-16T04:09:51.759Z,80.34
2023-05-16T04:12:20.989Z,80.42
2023-05-16T04:14:54.327Z,80.01
2023-05-16T04:17:23.902Z,81.09
2023-05-16T04:19:54.129Z,81.10
2023-05-16T04:22:24.761Z,80.94
2023-05-16T04:24:54.258Z,80.26
2023-05-16T04:27:23.787Z,80.24
2023-05-16T04:29:54.886Z,80.93
2023-05-16T04:32:25.535Z,80.30
2023-05-16T04:34:55.596Z,80.45
2023-05-16T04:37:25.552Z,80.12
2023-05-16T04:39:55.274Z,80.41
2023-05-16T04:42:26.396Z,79.63
2023-05-16T04:44:58.980Z,80.00
2023-05-16T04:47:28.482Z,80.35
2023-05-16T04:49:58.308Z,80.25
2023-05-16T04:52:29.835Z,80.19
2023-05-16T04:55:00.684Z,79.94
2023-05-16T04:57:30.296Z,79.43
2023-05-16T05:00:01.284Z,79.74
2023-05-16T05:02:30.813Z,79.02
2023-05-16T05:05:05.774Z,79.95
2023-05-16T05:07:35.721Z,79.40
2023-05-16T05:10:05.406Z,78.51
2023-05-16T05:12:34.689Z,78.67
2023-05-16T05:15:08.438Z,78.31
2023-05-16T05:17:43.392Z,78.09
2023-05-16T05:20:25.098Z,78.10
2023-05-16T05:22:54.169Z,78.53
2023-05-16T05:25:24.011Z,77.82
2023-05-16T05:28:01.387Z,77.81
2023-05-16T05:30:33.902Z,77.63
2023-05-16T05:33:03.881Z,78.23
2023-05-16T05:35:34.655Z,78.16
2023-05-16T05:38:07.138Z,78.58
2023-05-16T05:40:37.325Z,78.35
2023-05-16T05:43:06.987Z,77.47
2023-05-16T05:45:38.594Z,77.09
2023-05-16T05:48:09.731Z,77.10
2023-05-16T05:50:40.715Z,76.98
2023-05-16T05:53:10.189Z,76.89
2023-05-16T05:55:43.124Z,76.70
2023-05-16T05:58:12.555Z,76.87
2023-05-16T06:00:43.868Z,76.76
2023-05-16T06:03:17.448Z,76.80
2023-05-16T06:05:48.072Z,76.45
2023-05-16T06:08:17.709Z,76.61
2023-05-16T06:10:47.386Z,76.29
2023-05-16T06:13:16.794Z,76.05
2023-05-16T06:15:53.470Z,75.83
2023-05-16T06:18:23.469Z,75.59
2023-05-16T06:20:55.400Z,75.24
2023-05-16T06:23:26.390Z,75.13
2023-05-16T06:25:57.329Z,74.77
2023-05-16T06:28:28.045Z,74.66
2023-05-16T06:30:59.398Z,73.99
2023-05-16T06:33:31.462Z,73.21
2023-05-16T06:36:00.386Z,71.63
2023-05-16T06:38:30.234Z,71.26
2023-05-16T06:41:01.057Z,70.36
2023-05-16T06:43:40.787Z,69.66
2023-05-16T06:46:12.559Z,68.86
2023-05-16T06:48:52.895Z,68.84
2023-05-16T06:51:22.756Z,68.08
2023-05-16T06:53:52.792Z,67.23
2023-05-16T06:56:23.206Z,67.00
2023-05-16T06:58:52.808Z,66.16
2023-05-16T07:01:33.411Z,65.64
2023-05-16T07:04:04.547Z,64.96
2023-05-16T07:06:34.835Z,63.91
2023-05-16T07:09:06.313Z,63.75
2023-05-16T07:11:35.101Z,63.97
2023-05-16T07:14:04.369Z,63.64
2023-05-16T07:16:35.086Z,64.10
2023-05-16T07:19:04.857Z,63.49
2023-05-16T07:21:34.352Z,63.67
2023-05-16T07:24:05.123Z,63.18
2023-05-16T07:26:34.700Z,62.10
2023-05-16T07:29:04.794Z,61.49
2023-05-16T07:31:36.584Z,61.56
2023-05-16T07:34:06.726Z,61.05
2023-05-16T07:36:45.368Z,60.37
2023-05-16T07:39:15.030Z,58.88
2023-05-16T07:41:48.102Z,58.62
2023-05-16T07:44:17.582Z,58.36
2023-05-16T07:46:52.328Z,58.31
2023-05-16T07:49:31.095Z,57.15
2023-05-16T07:52:02.419Z,55.87
2023-05-16T07:54:34.179Z,55.52
2023-05-16T07:57:03.333Z,54.77
2023-05-16T07:59:32.608Z,55.00
2023-05-16T08:02:04.002Z,55.42
2023-05-16T08:04:33.406Z,56.28
2023-05-16T08:07:03.009Z,56.81
2023-05-16T08:09:32.388Z,56.88
2023-05-16T08:12:13.070Z,56.99
2023-05-16T08:14:43.899Z,55.03
2023-05-16T08:17:15.004Z,53.64
2023-05-16T08:19:48.001Z,53.72
2023-05-16T08:22:17.674Z,53.20
2023-05-16T08:24:48.234Z,53.75
2023-05-16T08:27:20.066Z,53.17
2023-05-16T08:29:49.934Z,52.55
2023-05-16T08:32:24.334Z,51.09
2023-05-16T08:34:56.414Z,50.99
2023-05-16T08:37:28.218Z,51.25
2023-05-16T08:39:57.978Z,51.36
2023-05-16T08:42:28.793Z,51.91
2023-05-16T08:45:00.160Z,52.03
2023-05-16T08:47:37.350Z,51.81
2023-05-16T08:50:09.876Z,51.98
2023-05-16T08:52:42.550Z,51.57
2023-05-16T08:55:13.101Z,52.03
2023-05-16T08:57:44.220Z,52.90
2023-05-16T09:00:15.728Z,53.71
2023-05-16T09:02:47.678Z,52.78
2023-05-16T09:05:23.381Z,52.26
2023-05-16T09:08:05.992Z,52.04
2023-05-16T09:10:36.787Z,51.09
2023-05-16T09:13:06.362Z,50.25
2023-05-16T09:15:41.393Z,49.72
2023-05-16T09:18:16.231Z,50.23
2023-05-16T09:20:51.241Z,50.07
2023-05-16T09:23:27.101Z,50.78
2023-05-16T09:25:57.343Z,50.95
2023-05-16T09:28:30.617Z,51.84
2023-05-16T09:31:04.585Z,52.57
2023-05-16T09:33:39.639Z,53.90
2023-05-16T09:36:09.723Z,54.45
2023-05-16T10:22:29.282Z,67.39
2023-05-16T10:25:08.434Z,69.32
2023-05-16T10:27:38.709Z,70.24
2023-05-16T10:30:13.999Z,69.77
2023-05-16T10:32:53.420Z,69.45
2023-05-16T10:35:26.539Z,70.21
2023-05-16T10:38:06.599Z,70.45
2023-05-16T10:40:38.064Z,69.77
2023-05-16T10:43:09.010Z,68.50
2023-05-16T10:46:15.099Z,67.98
2023-05-16T10:48:58.838Z,69.38
2023-05-16T10:51:50.082Z,71.85
2023-05-16T10:54:43.547Z,72.24
2023-05-16T10:57:33.639Z,72.84
2023-05-16T11:00:33.551Z,73.92
2023-05-16T11:03:31.868Z,73.02
2023-05-16T11:06:11.998Z,73.00
2023-05-16T11:09:30.311Z,72.17
2023-05-16T11:12:11.172Z,71.81
2023-05-16T11:14:54.783Z,71.22
2023-05-16T11:17:48.047Z,71.60
2023-05-16T11:20:42.974Z,71.42
2023-05-16T11:23:40.431Z,72.18
2023-05-16T11:26:20.407Z,71.06
2023-05-16T11:29:01.838Z,70.73
2023-05-16T11:31:30.935Z,70.58
2023-05-16T11:34:03.860Z,69.47
2023-05-16T11:36:34.790Z,69.91
2023-05-16T11:39:10.716Z,67.63
2023-05-16T11:41:41.714Z,65.68
2023-05-16T11:44:22.053Z,63.83
2023-05-16T11:46:51.977Z,62.38
2023-05-16T11:49:22.326Z,59.26
2023-05-16T11:51:53.352Z,57.25
2023-05-16T11:54:27.157Z,55.89
2023-05-16T11:57:00.948Z,54.66
2023-05-16T11:59:32.658Z,54.88
2023-05-16T12:02:07.352Z,53.73
2023-05-16T12:04:38.589Z,51.18
2023-05-16T12:07:09.938Z,49.87
2023-05-16T12:09:39.611Z,47.84
2023-05-16T12:12:14.533Z,46.66
2023-05-16T12:14:45.636Z,46.47
2023-05-16T12:17:24.356Z,47.51
2023-05-16T12:19:58.417Z,48.60
2023-05-16T12:22:30.538Z,49.53
2023-05-16T12:25:02.121Z,50.24
2023-05-16T12:27:36.188Z,49.11
2023-05-16T12:30:07.282Z,47.26
2023-05-16T12:32:39.718Z,46.39
2023-05-16T12:35:10.064Z,44.94
2023-05-16T12:37:39.041Z,44.79
2023-05-16T12:40:24.331Z,45.66
2023-05-16T12:43:00.785Z,46.53
2023-05-16T12:45:31.231Z,47.76
2023-05-16T12:48:12.765Z,46.90
2023-05-16T12:50:43.221Z,45.00
2023-05-16T12:53:17.618Z,45.04
2023-05-16T12:55:50.686Z,45.22
2023-05-16T12:58:22.749Z,44.59
2023-05-16T13:00:56.611Z,44.63
2023-05-16T13:03:27.298Z,44.34
2023-05-16T13:05:59.130Z,44.97
2023-05-16T13:08:33.309Z,45.34
2023-05-16T13:11:02.684Z,45.33
2023-05-16T13:13:36.250Z,45.94
2023-05-16T13:16:07.320Z,46.82
2023-05-16T13:18:37.595Z,47.76
2023-05-16T13:21:09.093Z,50.38
2023-05-16T13:23:41.154Z,54.54
2023-05-16T13:26:17.220Z,59.31
2023-05-16T13:28:52.172Z,60.08
2023-05-16T13:31:24.899Z,59.31
2023-05-16T13:33:54.679Z,58.03
2023-05-16T13:36:28.629Z,57.91
2023-05-16T13:38:59.083Z,59.45
2023-05-16T13:41:29.301Z,59.36
2023-05-16T13:44:01.914Z,59.57
2023-05-16T13:46:32.598Z,57.73
2023-05-16T13:49:03.101Z,55.07
2023-05-16T13:51:36.079Z,54.28
2023-05-16T13:54:06.193Z,54.49
2023-05-16T13:56:35.442Z,53.45
2023-05-16T13:59:07.559Z,53.03
2023-05-16T14:01:37.499Z,50.21
2023-05-16T14:04:09.040Z,47.87
2023-05-16T14:06:38.168Z,44.72
2023-05-16T14:09:08.286Z,42.39
2023-05-16T14:11:37.683Z,41.83
2023-05-16T14:14:08.464Z,42.39
2023-05-16T14:16:37.725Z,42.90
2023-05-16T14:19:11.388Z,43.44
2023-05-16T14:21:41.098Z,43.92
2023-05-16T14:24:10.514Z,44.44
2023-05-16T14:26:40.677Z,43.92
2023-05-16T14:29:11.293Z,44.41
2023-05-16T14:31:40.268Z,44.72
2023-05-16T14:34:09.153Z,44.04
2023-05-16T14:36:38.834Z,43.71
2023-05-16T14:39:11.426Z,43.89
2023-05-16T14:41:40.500Z,43.81
2023-05-16T14:44:11.348Z,43.57
2023-05-16T14:46:45.945Z,44.22
2023-05-16T14:49:15.411Z,46.01
2023-05-16T14:51:49.579Z,47.63
2023-05-16T14:54:19.614Z,50.32
2023-05-16T14:56:52.268Z,55.22
2023-05-16T14:59:29.171Z,57.93
2023-05-16T15:02:00.216Z,59.96
2023-05-16T15:04:39.156Z,60.60
2023-05-16T15:07:08.730Z,60.76
2023-05-16T15:09:38.916Z,59.24
2023-05-16T15:12:12.322Z,57.15
2023-05-16T15:14:44.295Z,56.46
2023-05-16T15:17:14.562Z,54.83
2023-05-16T15:19:44.565Z,53.98
2023-05-16T15:22:13.685Z,52.23
2023-05-16T15:24:44.001Z,50.19
2023-05-16T15:27:14.369Z,50.50
2023-05-16T15:29:45.513Z,50.45
2023-05-16T15:32:15.214Z,49.70
2023-05-16T15:34:44.766Z,45.50
2023-05-16T15:37:14.560Z,43.95
2023-05-16T15:39:44.549Z,43.46
2023-05-16T15:42:16.716Z,43.29
2023-05-16T15:44:47.371Z,43.04
2023-05-16T15:47:16.896Z,41.01
2023-05-16T15:49:46.375Z,39.12
2023-05-16T15:52:16.404Z,38.59
2023-05-16T15:54:45.879Z,39.50
2023-05-16T15:57:16.850Z,40.85
2023-05-16T15:59:47.888Z,43.00
2023-05-16T16:02:18.801Z,44.23
2023-05-16T16:04:49.288Z,45.40
2023-05-16T16:07:20.526Z,46.32
2023-05-16T16:09:49.901Z,47.39
2023-05-16T16:12:20.089Z,47.97
2023-05-16T16:14:53.075Z,48.63
2023-05-16T16:17:22.739Z,48.62
2023-05-16T16:19:52.318Z,49.13
2023-05-16T16:22:22.764Z,49.59
2023-05-16T16:24:53.174Z,50.06
2023-05-16T16:27:24.037Z,50.58
2023-05-16T16:29:55.759Z,51.01
2023-05-16T16:32:26.018Z,51.32
2023-05-16T16:34:56.618Z,52.27
2023-05-16T16:37:26.972Z,52.75
2023-05-16T16:39:56.763Z,52.27
2023-05-16T16:42:28.098Z,52.14
2023-05-16T16:47:42.407Z,52.83
2023-05-16T16:50:15.889Z,52.75
2023-05-16T16:52:47.142Z,53.06
2023-05-16T16:55:17.158Z,53.24
2023-05-16T16:57:46.284Z,53.40
2023-05-16T17:00:25.160Z,53.49
2023-05-16T17:02:56.844Z,53.65
2023-05-16T17:05:29.184Z,54.32
2023-05-16T17:08:02.279Z,54.47
2023-05-16T17:10:31.948Z,53.02
2023-05-16T17:13:12.294Z,52.49
2023-05-16T17:15:44.336Z,51.89
2023-05-16T17:18:13.651Z,51.79
2023-05-16T17:20:42.617Z,52.32
2023-05-16T17:23:11.967Z,53.00
2023-05-16T17:25:41.347Z,53.33
2023-05-16T17:28:14.443Z,53.95
2023-05-16T17:30:45.633Z,54.48
2023-05-16T17:33:17.214Z,53.21
2023-05-16T17:35:47.749Z,52.39
2023-05-16T17:38:17.279Z,51.56
2023-05-16T17:40:47.546Z,50.06
2023-05-16T17:43:17.524Z,47.68
2023-05-16T17:45:49.999Z,45.85
2023-05-16T17:48:23.672Z,45.84
2023-05-16T17:50:53.645Z,47.16
2023-05-16T17:53:23.956Z,48.18
2023-05-16T17:55:57.140Z,49.22
2023-05-16T17:58:27.596Z,50.35
2023-05-16T18:00:58.656Z,50.63
2023-05-16T18:03:29.256Z,51.97
2023-05-16T18:06:02.235Z,52.52
2023-05-16T18:08:32.173Z,52.93
2023-05-16T18:11:01.479Z,53.51
2023-05-16T18:13:31.437Z,54.05
2023-05-16T18:16:02.399Z,54.61
2023-05-16T18:18:32.283Z,54.35
2023-05-16T18:21:07.757Z,54.72
2023-05-16T18:23:38.545Z,54.44
2023-05-16T18:26:08.778Z,54.89
2023-05-16T18:28:39.522Z,55.38
2023-05-16T18:31:11.230Z,55.55
2023-05-16T18:33:40.608Z,55.87
2023-05-16T18:36:10.903Z,56.04
2023-05-16T18:38:41.351Z,56.55
2023-05-16T18:41:13.665Z,57.20
2023-05-16T18:43:43.269Z,57.33
2023-05-16T18:46:18.112Z,58.35
2023-05-16T18:48:47.530Z,58.22
2023-05-16T18:51:17.150Z,58.43
2023-05-16T18:53:46.469Z,59.15
2023-05-16T18:56:17.370Z,59.19
2023-05-16T18:58:47.230Z,59.47
2023-05-16T19:01:23.591Z,60.22
2023-05-16T19:03:54.159Z,60.46
2023-05-16T19:06:27.103Z,60.75
2023-05-16T19:08:57.461Z,61.60
2023-05-16T19:11:28.617Z,61.92
2023-05-16T19:14:00.133Z,62.23
2023-05-16T19:16:31.593Z,62.12
2023-05-16T19:19:01.589Z,62.45
2023-05-16T19:21:33.066Z,63.04
2023-05-16T19:24:03.822Z,63.01
2023-05-16T19:26:34.877Z,63.47
2023-05-16T19:29:05.077Z,63.57
2023-05-16T19:31:36.331Z,63.74
2023-05-16T19:34:07.695Z,64.11
2023-05-16T19:36:40.582Z,63.95
2023-05-16T19:39:09.561Z,64.36
2023-05-16T19:41:39.339Z,65.35
2023-05-16T19:44:10.210Z,65.46
2023-05-16T19:46:50.441Z,65.92
2023-05-16T19:49:20.901Z,65.98
2023-05-16T19:51:50.494Z,66.12
2023-05-16T19:54:21.612Z,66.10
2023-05-16T19:56:57.256Z,66.40
2023-05-16T19:59:27.181Z,66.80
2023-05-16T20:01:59.382Z,66.83
2023-05-16T20:04:31.272Z,66.93
2023-05-16T20:07:00.694Z,67.65
2023-05-16T20:09:30.847Z,68.01
2023-05-16T20:12:00.229Z,68.43
2023-05-16T20:14:32.218Z,68.56
2023-05-16T20:17:03.335Z,69.28
2023-05-16T20:19:33.309Z,69.35
2023-05-16T20:22:03.145Z,69.96
2023-05-16T20:27:17.568Z,70.61
2023-05-16T20:29:51.512Z,70.87
2023-05-16T20:32:25.356Z,71.16
2023-05-16T20:34:54.564Z,71.23
2023-05-16T20:37:32.000Z,71.37
2023-05-16T20:40:09.856Z,71.17
2023-05-16T20:42:39.706Z,71.36
2023-05-16T20:45:11.950Z,71.41
2023-05-16T20:47:51.417Z,71.60
2023-05-16T20:50:22.851Z,72.06
2023-05-16T20:52:52.193Z,71.75
2023-05-16T20:55:28.277Z,71.77
2023-05-16T20:58:00.719Z,71.94
2023-05-16T21:00:32.139Z,71.92
2023-05-16T21:03:06.418Z,71.83
2023-05-16T21:05:40.135Z,72.53
2023-05-16T21:08:11.580Z,73.20
2023-05-16T21:10:43.693Z,74.10
2023-05-16T21:13:13.381Z,74.01
2023-05-16T21:15:51.883Z,74.10
2023-05-16T21:18:25.916Z,74.42
2023-05-16T21:20:59.250Z,74.33
2023-05-16T21:23:30.620Z,73.96
2023-05-16T21:26:00.825Z,74.54
2023-05-16T21:28:34.824Z,74.79
2023-05-16T21:31:09.986Z,74.54
2023-05-16T21:33:40.930Z,74.67
2023-05-16T21:36:13.859Z,74.85
2023-05-16T21:38:43.477Z,74.99
2023-05-16T21:41:13.314Z,74.71
2023-05-16T21:43:42.206Z,74.83
2023-05-16T21:46:14.570Z,74.95
2023-05-16T21:48:48.922Z,74.67
2023-05-16T21:51:18.208Z,75.25
2023-05-16T21:53:47.357Z,74.92
2023-05-16T21:56:17.984Z,75.12
2023-05-16T21:58:51.736Z,75.04
2023-05-16T22:01:29.016Z,75.03
2023-05-16T22:04:00.889Z,75.38
2023-05-16T22:06:31.187Z,75.61
2023-05-16T22:09:01.862Z,75.73
2023-05-16T22:11:32.148Z,76.02
2023-05-16T22:14:08.738Z,76.09
2023-05-16T22:16:41.075Z,76.14
2023-05-16T22:19:13.121Z,76.46
2023-05-16T22:21:43.365Z,76.39
2023-05-16T22:24:16.248Z,76.30
2023-05-16T22:26:46.567Z,76.34
2023-05-16T22:29:16.909Z,76.65
2023-05-16T22:32:00.177Z,76.08
2023-05-16T22:34:34.229Z,76.26
2023-05-16T22:37:03.276Z,75.93
2023-05-16T22:39:35.703Z,76.36
2023-05-16T22:42:06.941Z,76.22
2023-05-16T22:44:39.365Z,76.22
2023-05-16T22:47:13.260Z,76.39
2023-05-16T22:49:45.027Z,75.86
2023-05-16T22:52:14.293Z,76.21
2023-05-16T22:54:43.340Z,76.15
2023-05-16T22:57:13.173Z,75.87
2023-05-16T22:59:42.090Z,75.95
2023-05-16T23:02:11.943Z,75.89
2023-05-16T23:04:42.565Z,75.63
2023-05-16T23:07:15.520Z,75.87
2023-05-16T23:09:45.419Z,75.96
2023-05-16T23:12:15.280Z,75.80
2023-05-16T23:14:45.206Z,75.63
2023-05-16T23:17:15.734Z,74.71
2023-05-16T23:19:47.513Z,74.34
2023-05-16T23:22:17.376Z,73.44
2023-05-16T23:24:47.837Z,73.51
2023-05-16T23:27:18.201Z,73.04
2023-05-16T23:29:50.152Z,73.12
2023-05-16T23:32:20.187Z,72.12
2023-05-16T23:34:52.971Z,72.12
2023-05-16T23:37:22.899Z,71.77
2023-05-16T23:39:52.818Z,72.23
2023-05-16T23:42:22.341Z,71.95
2023-05-16T23:44:51.726Z,72.09
2023-05-16T23:47:23.806Z,71.42
2023-05-16T23:49:54.864Z,71.25
2023-05-16T23:52:27.509Z,71.77
2023-05-16T23:55:00.290Z,71.76
2023-05-16T23:57:29.696Z,71.58
